createdAt,value
2023-01-26T00:01:09.860Z,16.60
2023-01-26T00:04:13.238Z,16.17
2023-01-26T00:07:16.286Z,16.70
2023-01-26T00:10:20.849Z,15.57
2023-01-26T00:13:23.899Z,15.97
2023-01-26T00:16:27.959Z,15.10
2023-01-26T00:19:31.024Z,17.13
2023-01-26T00:22:33.952Z,16.93
2023-01-26T00:25:41.235Z,17.10
2023-01-26T00:28:44.268Z,17.67
2023-01-26T00:31:47.302Z,17.30
2023-01-26T00:34:50.496Z,17.60
2023-01-26T00:37:54.810Z,17.30
2023-01-26T00:41:00.465Z,17.07
2023-01-26T00:44:03.732Z,16.60
2023-01-26T00:47:07.873Z,17.47
2023-01-26T00:50:12.452Z,17.07
2023-01-26T00:53:15.600Z,17.23
2023-01-26T00:56:20.002Z,17.00
2023-01-26T00:59:23.524Z,16.97
2023-01-26T01:02:26.649Z,16.80
2023-01-26T01:05:32.295Z,15.90
2023-01-26T01:08:35.339Z,16.53
2023-01-26T01:11:39.939Z,16.40
2023-01-26T01:14:43.202Z,16.33
2023-01-26T01:17:46.190Z,16.50
2023-01-26T01:20:49.171Z,17.10
2023-01-26T01:23:52.222Z,17.43
2023-01-26T01:26:56.651Z,17.37
2023-01-26T01:29:59.667Z,18.10
2023-01-26T01:33:02.643Z,16.70
2023-01-26T01:36:07.472Z,17.20
2023-01-26T01:39:10.625Z,17.73
2023-01-26T01:42:14.981Z,18.10
2023-01-26T01:45:40.637Z,17.20
2023-01-26T01:48:50.526Z,17.43
2023-01-26T01:51:57.455Z,17.53
2023-01-26T01:55:07.208Z,18.43
2023-01-26T01:58:11.706Z,16.30
2023-01-26T02:01:14.853Z,18.47
2023-01-26T02:04:18.228Z,18.30
2023-01-26T02:07:21.479Z,17.13
2023-01-26T02:10:25.665Z,17.37
2023-01-26T02:13:32.652Z,18.83
2023-01-26T02:16:36.592Z,17.07
2023-01-26T02:19:48.876Z,17.73
2023-01-26T02:22:58.828Z,16.43
2023-01-26T02:26:08.912Z,17.73
2023-01-26T02:29:13.134Z,17.10
2023-01-26T02:32:16.426Z,18.40
2023-01-26T02:35:19.553Z,18.93
2023-01-26T02:38:24.717Z,17.67
2023-01-26T02:41:46.691Z,17.80
2023-01-26T02:44:49.956Z,18.10
2023-01-26T02:47:52.987Z,16.83
2023-01-26T02:50:55.058Z,17.93
2023-01-26T02:53:58.005Z,20.17
2023-01-26T02:57:01.409Z,20.13
2023-01-26T03:00:04.811Z,19.40
2023-01-26T03:03:15.671Z,19.60
2023-01-26T03:06:18.790Z,19.80
2023-01-26T03:09:21.799Z,19.47
2023-01-26T03:12:26.474Z,19.77
2023-01-26T03:15:47.966Z,19.30
2023-01-26T03:19:22.984Z,19.33
2023-01-26T03:22:43.708Z,19.83
2023-01-26T03:26:04.258Z,19.30
2023-01-26T03:29:08.994Z,19.53
2023-01-26T03:32:12.318Z,20.10
2023-01-26T03:35:16.145Z,20.60
2023-01-26T03:38:19.208Z,18.90
2023-01-26T03:41:39.888Z,18.03
2023-01-26T03:45:01.831Z,18.57
2023-01-26T03:48:24.198Z,18.67
2023-01-26T03:51:44.593Z,18.90
2023-01-26T03:55:05.185Z,18.23
2023-01-26T03:58:09.580Z,19.40
2023-01-26T04:01:20.119Z,19.30
2023-01-26T04:04:40.660Z,17.80
2023-01-26T04:08:01.175Z,18.27
2023-01-26T04:11:04.210Z,17.37
2023-01-26T04:14:24.863Z,16.67
2023-01-26T04:17:46.861Z,18.47
2023-01-26T04:21:07.100Z,17.87
2023-01-26T04:24:16.700Z,17.83
2023-01-26T04:27:20.072Z,16.30
2023-01-26T04:30:23.324Z,18.00
2023-01-26T04:33:27.736Z,15.60
2023-01-26T04:36:30.902Z,16.37
2023-01-26T04:39:33.867Z,17.73
2023-01-26T04:42:36.887Z,16.77
2023-01-26T04:45:39.879Z,16.43
2023-01-26T04:48:44.287Z,17.63
2023-01-26T04:51:47.249Z,16.47
2023-01-26T04:54:50.382Z,17.90
2023-01-26T04:57:53.604Z,15.77
2023-01-26T05:00:58.132Z,16.73
2023-01-26T05:04:03.356Z,16.33
2023-01-26T05:07:06.428Z,15.53
2023-01-26T05:10:12.062Z,15.37
2023-01-26T05:13:16.897Z,16.00
2023-01-26T05:16:19.950Z,15.00
2023-01-26T05:19:24.317Z,15.17
2023-01-26T05:22:27.810Z,15.07
2023-01-26T05:25:30.837Z,15.87
2023-01-26T05:28:34.650Z,15.23
2023-01-26T05:31:37.669Z,14.77
2023-01-26T05:34:42.034Z,14.97
2023-01-26T05:37:46.429Z,16.90
2023-01-26T05:40:49.415Z,15.53
2023-01-26T05:43:52.473Z,15.77
2023-01-26T05:46:55.480Z,16.87
2023-01-26T05:49:59.877Z,14.60
2023-01-26T05:53:03.102Z,17.73
2023-01-26T05:56:06.543Z,18.27
2023-01-26T05:59:09.687Z,18.30
2023-01-26T06:02:13.726Z,17.57
2023-01-26T06:05:18.468Z,16.83
2023-01-26T06:08:21.449Z,17.30
2023-01-26T06:11:24.588Z,17.40
2023-01-26T06:14:27.618Z,18.10
2023-01-26T06:17:30.583Z,18.57
2023-01-26T06:20:34.962Z,15.87
2023-01-26T06:23:37.972Z,15.73
2023-01-26T06:26:41.048Z,15.67
2023-01-26T06:29:44.653Z,16.30
2023-01-26T06:32:48.981Z,14.73
2023-01-26T06:35:54.508Z,16.20
2023-01-26T06:39:00.461Z,14.47
2023-01-26T06:42:03.760Z,14.23
2023-01-26T06:45:07.823Z,13.37
2023-01-26T06:48:10.819Z,13.97
2023-01-26T06:51:43.954Z,14.43
2023-01-26T06:54:49.770Z,14.63
2023-01-26T06:57:52.848Z,13.33
2023-01-26T07:00:56.788Z,14.77
2023-01-26T07:03:59.819Z,13.57
2023-01-26T07:07:04.280Z,14.30
2023-01-26T07:10:08.306Z,13.53
2023-01-26T07:13:11.638Z,14.77
2023-01-26T07:16:16.820Z,15.97
2023-01-26T07:19:19.893Z,13.77
2023-01-26T07:22:24.407Z,14.80
2023-01-26T07:25:27.414Z,13.30
2023-01-26T07:28:30.598Z,14.37
2023-01-26T07:31:33.725Z,13.47
2023-01-26T07:34:36.718Z,13.43
2023-01-26T07:37:41.132Z,13.90
2023-01-26T07:40:44.162Z,14.80
2023-01-26T07:43:47.259Z,13.70
2023-01-26T07:46:50.371Z,13.93
2023-01-26T07:49:53.324Z,13.60
2023-01-26T07:52:57.743Z,13.40
2023-01-26T07:56:11.820Z,14.40
2023-01-26T07:59:14.790Z,14.33
2023-01-26T08:02:17.859Z,14.20
2023-01-26T08:05:20.773Z,14.60
2023-01-26T08:08:25.220Z,13.73
2023-01-26T08:11:28.220Z,13.87
2023-01-26T08:14:45.080Z,14.03
2023-01-26T08:17:49.317Z,13.77
2023-01-26T08:20:53.190Z,12.77
2023-01-26T08:24:01.773Z,13.27
2023-01-26T08:27:05.155Z,13.10
2023-01-26T08:30:10.566Z,13.37
2023-01-26T08:33:13.897Z,12.67
2023-01-26T08:36:17.433Z,13.37
2023-01-26T08:39:21.855Z,12.00
2023-01-26T08:42:25.339Z,13.57
2023-01-26T08:45:31.756Z,11.77
2023-01-26T08:48:34.843Z,12.80
2023-01-26T08:51:38.202Z,13.03
2023-01-26T08:54:42.740Z,13.60
2023-01-26T08:57:47.085Z,12.97
2023-01-26T09:00:51.033Z,13.33
2023-01-26T09:03:55.868Z,12.27
2023-01-26T09:06:58.871Z,13.67
2023-01-26T09:10:03.344Z,12.43
2023-01-26T09:13:06.951Z,12.20
2023-01-26T09:16:16.223Z,13.03
2023-01-26T09:19:19.259Z,14.60
2023-01-26T09:22:22.258Z,13.70
2023-01-26T09:25:26.633Z,13.70
2023-01-26T09:28:29.948Z,13.97
2023-01-26T09:31:33.059Z,12.87
2023-01-26T09:34:36.287Z,14.10
2023-01-26T09:37:39.956Z,14.53
2023-01-26T09:40:54.192Z,14.23
2023-01-26T09:44:01.197Z,14.57
2023-01-26T09:47:09.159Z,13.37
2023-01-26T09:50:16.158Z,12.77
2023-01-26T09:53:24.699Z,13.63
2023-01-26T09:56:32.588Z,13.43
2023-01-26T09:59:42.849Z,13.53
2023-01-26T10:02:57.583Z,13.00
2023-01-26T10:06:07.035Z,13.27
2023-01-26T10:09:27.758Z,14.57
2023-01-26T10:12:35.299Z,14.23
2023-01-26T10:15:40.694Z,13.63
2023-01-26T10:18:53.814Z,14.77
2023-01-26T10:22:00.297Z,13.13
2023-01-26T10:25:03.764Z,13.60
2023-01-26T10:28:15.270Z,14.20
2023-01-26T10:31:20.122Z,13.50
2023-01-26T10:34:26.086Z,13.27
2023-01-26T10:37:30.908Z,13.77
2023-01-26T10:40:44.501Z,14.07
2023-01-26T10:43:52.879Z,13.73
2023-01-26T10:47:15.933Z,13.30
2023-01-26T10:50:24.099Z,13.00
2023-01-26T10:53:29.657Z,11.20
2023-01-26T10:56:33.035Z,11.87
2023-01-26T10:59:46.096Z,11.50
2023-01-26T11:02:52.349Z,11.53
2023-01-26T11:06:07.372Z,11.67
2023-01-26T11:09:17.695Z,12.10
2023-01-26T11:12:22.247Z,11.90
2023-01-26T11:15:39.479Z,12.07
2023-01-26T11:18:52.441Z,12.77
2023-01-26T11:22:00.388Z,13.77
2023-01-26T11:25:16.506Z,14.93
2023-01-26T11:28:33.834Z,13.80
2023-01-26T11:31:46.228Z,13.47
2023-01-26T11:35:02.979Z,14.43
2023-01-26T11:38:23.573Z,13.73
2023-01-26T11:41:37.817Z,13.93
2023-01-26T11:44:58.730Z,14.10
2023-01-26T11:48:13.237Z,14.30
2023-01-26T11:51:25.057Z,13.47
2023-01-26T11:54:41.222Z,13.87
2023-01-26T11:57:54.419Z,14.93
2023-01-26T12:01:00.427Z,14.50
2023-01-26T12:04:05.183Z,15.30
2023-01-26T12:07:16.085Z,16.03
2023-01-26T12:10:22.114Z,14.53
2023-01-26T12:13:33.966Z,14.43
2023-01-26T12:16:45.786Z,14.00
2023-01-26T12:20:04.397Z,14.13
2023-01-26T12:23:18.492Z,12.93
2023-01-26T12:26:24.443Z,13.17
2023-01-26T12:29:37.299Z,14.13
2023-01-26T12:32:40.278Z,13.40
2023-01-26T12:36:00.914Z,14.40
2023-01-26T12:39:14.362Z,15.03
2023-01-26T12:42:28.704Z,15.17
2023-01-26T12:45:36.102Z,16.00
2023-01-26T12:48:44.559Z,13.87
2023-01-26T12:51:53.282Z,14.03
2023-01-26T12:55:03.008Z,14.10
2023-01-26T12:58:12.687Z,13.70
2023-01-26T13:01:19.011Z,13.50
2023-01-26T13:04:22.058Z,12.93
2023-01-26T13:07:32.003Z,12.30
2023-01-26T13:10:49.892Z,10.90
2023-01-26T13:13:57.408Z,11.90
2023-01-26T13:17:53.156Z,11.70
2023-01-26T13:20:56.397Z,11.17
2023-01-26T13:24:00.920Z,11.23
2023-01-26T13:27:03.976Z,12.13
2023-01-26T13:30:36.067Z,12.00
2023-01-26T13:33:40.011Z,11.20
2023-01-26T13:36:47.642Z,10.10
2023-01-26T13:39:56.232Z,10.83
2023-01-26T13:43:11.763Z,10.87
2023-01-26T13:46:26.650Z,10.13
2023-01-26T13:49:39.231Z,10.37
2023-01-26T13:52:43.749Z,10.67
2023-01-26T13:55:56.268Z,10.77
2023-01-26T13:59:08.727Z,11.73
2023-01-26T14:02:22.120Z,11.33
2023-01-26T14:05:25.206Z,11.37
2023-01-26T14:08:28.937Z,10.97
2023-01-26T14:11:35.256Z,11.03
2023-01-26T14:14:38.952Z,10.50
2023-01-26T14:17:50.271Z,11.23
2023-01-26T14:21:00.399Z,11.20
2023-01-26T14:24:03.978Z,11.93
2023-01-26T14:27:29.215Z,12.30
2023-01-26T14:30:34.610Z,12.17
2023-01-26T14:33:38.333Z,12.63
2023-01-26T14:36:41.472Z,13.13
2023-01-26T14:39:47.897Z,12.17
2023-01-26T14:42:54.657Z,13.07
2023-01-26T14:46:02.061Z,12.20
2023-01-26T14:49:10.206Z,11.43
2023-01-26T14:52:23.887Z,11.57
2023-01-26T14:55:29.569Z,12.40
2023-01-26T14:58:34.840Z,13.20
2023-01-26T15:01:38.310Z,12.70
2023-01-26T15:04:42.608Z,13.30
2023-01-26T15:07:47.782Z,13.63
2023-01-26T15:11:19.215Z,12.27
2023-01-26T15:14:35.658Z,13.07
2023-01-26T15:17:40.419Z,12.77
2023-01-26T15:20:46.314Z,13.60
2023-01-26T15:23:52.295Z,14.07
2023-01-26T15:27:05.149Z,13.70
2023-01-26T15:30:18.075Z,14.63
2023-01-26T15:33:50.735Z,14.57
2023-01-26T15:36:53.766Z,16.17
2023-01-26T15:39:57.010Z,16.37
2023-01-26T15:43:11.626Z,16.87
2023-01-26T15:46:15.992Z,16.60
2023-01-26T15:49:22.943Z,17.57
2023-01-26T15:52:30.357Z,16.77
2023-01-26T15:55:34.866Z,16.83
2023-01-26T15:58:37.905Z,17.10
2023-01-26T16:01:42.400Z,17.47
2023-01-26T16:04:45.953Z,17.90
2023-01-26T16:07:49.205Z,17.17
2023-01-26T16:10:52.390Z,17.67
2023-01-26T16:14:03.170Z,18.07
2023-01-26T16:17:14.359Z,16.57
2023-01-26T16:20:17.658Z,18.00
2023-01-26T16:23:22.855Z,18.07
2023-01-26T16:26:27.637Z,16.43
2023-01-26T16:29:31.300Z,15.83
2023-01-26T16:32:35.746Z,15.30
2023-01-26T16:35:38.819Z,14.97
2023-01-26T16:38:42.386Z,16.87
2023-01-26T16:41:45.692Z,15.63
2023-01-26T16:44:49.027Z,14.73
2023-01-26T16:47:55.771Z,16.03
2023-01-26T16:50:58.866Z,14.10
2023-01-26T16:54:01.882Z,14.10
2023-01-26T16:57:05.306Z,15.00
2023-01-26T17:00:10.935Z,15.13
2023-01-26T17:03:15.705Z,14.53
2023-01-26T17:06:20.023Z,15.90
2023-01-26T17:09:23.857Z,17.37
2023-01-26T17:12:27.429Z,16.10
2023-01-26T17:15:30.646Z,15.43
2023-01-26T17:18:35.092Z,16.27
2023-01-26T17:21:38.176Z,16.10
2023-01-26T17:24:42.633Z,16.07
2023-01-26T17:27:46.400Z,15.80
2023-01-26T17:30:49.438Z,15.43
2023-01-26T17:33:55.415Z,15.90
2023-01-26T17:37:00.061Z,15.90
2023-01-26T17:40:03.026Z,16.83
2023-01-26T17:43:06.037Z,16.60
2023-01-26T17:46:11.869Z,15.53
2023-01-26T17:49:16.341Z,15.23
2023-01-26T17:52:19.448Z,16.47
2023-01-26T17:55:22.552Z,15.93
2023-01-26T17:58:25.614Z,16.07
2023-01-26T18:01:28.743Z,15.77
2023-01-26T18:04:33.495Z,15.00
2023-01-26T18:07:36.538Z,15.20
2023-01-26T18:10:39.605Z,15.20
2023-01-26T18:13:44.131Z,16.23
2023-01-26T18:16:47.187Z,16.53
2023-01-26T18:19:51.810Z,17.00
2023-01-26T18:22:54.798Z,18.23
2023-01-26T18:26:04.978Z,16.17
2023-01-26T18:29:08.817Z,16.30
2023-01-26T18:32:12.078Z,17.43
2023-01-26T18:35:16.595Z,18.47
2023-01-26T18:38:19.627Z,18.17
2023-01-26T18:41:24.073Z,17.43
2023-01-26T18:44:27.473Z,16.93
2023-01-26T18:47:31.660Z,16.80
2023-01-26T18:50:38.272Z,15.73
2023-01-26T18:53:41.374Z,16.43
2023-01-26T18:56:44.432Z,16.60
2023-01-26T18:59:47.532Z,15.90
2023-01-26T19:02:50.595Z,17.43
2023-01-26T19:05:54.990Z,15.77
2023-01-26T19:09:00.771Z,16.67
2023-01-26T19:12:04.034Z,15.77
2023-01-26T19:15:08.647Z,17.70
2023-01-26T19:18:11.745Z,17.43
2023-01-26T19:21:17.138Z,16.37
2023-01-26T19:24:20.191Z,16.93
2023-01-26T19:27:23.282Z,14.77
2023-01-26T19:30:26.354Z,15.73
2023-01-26T19:33:30.573Z,16.30
2023-01-26T19:36:37.222Z,15.67
2023-01-26T19:39:40.257Z,15.70
2023-01-26T19:42:43.359Z,16.40
2023-01-26T19:45:49.641Z,15.37
2023-01-26T19:48:52.723Z,15.50
2023-01-26T19:51:57.139Z,16.10
2023-01-26T19:55:00.182Z,16.03
2023-01-26T19:58:03.178Z,16.53
2023-01-26T20:01:08.106Z,16.13
2023-01-26T20:04:15.251Z,15.87
2023-01-26T20:07:19.668Z,15.53
2023-01-26T20:10:22.638Z,15.07
2023-01-26T20:13:25.653Z,17.07
2023-01-26T20:16:29.152Z,16.40
2023-01-26T20:19:34.747Z,16.73
2023-01-26T20:22:39.391Z,16.23
2023-01-26T20:25:42.639Z,16.50
2023-01-26T20:28:46.184Z,16.13
2023-01-26T20:31:50.889Z,16.13
2023-01-26T20:34:53.911Z,17.13
2023-01-26T20:37:59.336Z,15.47
2023-01-26T20:41:07.865Z,15.50
2023-01-26T20:44:11.818Z,14.77
2023-01-26T20:47:14.846Z,15.40
2023-01-26T20:50:18.176Z,15.83
2023-01-26T20:53:22.572Z,16.90
2023-01-26T20:56:25.972Z,16.23
2023-01-26T20:59:29.839Z,15.97
2023-01-26T21:02:32.804Z,15.17
2023-01-26T21:05:35.870Z,14.73
2023-01-26T21:08:40.743Z,14.87
2023-01-26T21:11:43.875Z,14.80
2023-01-26T21:14:46.954Z,14.20
2023-01-26T21:17:50.021Z,14.80
2023-01-26T21:20:57.306Z,13.90
2023-01-26T21:24:01.814Z,13.23
2023-01-26T21:27:06.698Z,13.63
2023-01-26T21:30:11.465Z,13.77
2023-01-26T21:33:14.693Z,14.70
2023-01-26T21:36:19.502Z,13.00
2023-01-26T21:39:23.883Z,13.13
2023-01-26T21:42:26.983Z,13.87
2023-01-26T21:45:47.307Z,13.70
2023-01-26T21:48:50.707Z,13.40
2023-01-26T21:52:11.715Z,13.50
2023-01-26T21:55:16.211Z,13.77
2023-01-26T21:58:36.563Z,12.33
2023-01-26T22:01:41.306Z,11.70
2023-01-26T22:04:44.303Z,13.53
2023-01-26T22:07:47.304Z,13.03
2023-01-26T22:10:55.545Z,12.30
2023-01-26T22:13:58.776Z,12.53
2023-01-26T22:17:01.999Z,12.57
2023-01-26T22:20:05.644Z,11.60
2023-01-26T22:23:08.589Z,12.07
2023-01-26T22:26:16.389Z,11.60
2023-01-26T22:29:19.415Z,12.40
2023-01-26T22:32:22.427Z,12.20
2023-01-26T22:35:25.653Z,11.40
2023-01-26T22:38:28.722Z,12.10
2023-01-26T22:41:34.366Z,12.23
2023-01-26T22:44:37.402Z,11.90
2023-01-26T22:47:41.123Z,11.23
2023-01-26T22:50:44.247Z,12.40
2023-01-26T22:53:49.071Z,11.77
2023-01-26T22:56:53.541Z,12.50
2023-01-26T22:59:56.527Z,12.13
2023-01-26T23:02:59.609Z,11.83
2023-01-26T23:06:03.541Z,12.33
2023-01-26T23:09:06.540Z,12.17
2023-01-26T23:12:11.063Z,11.60
2023-01-26T23:15:14.458Z,11.30
2023-01-26T23:18:17.473Z,10.57
2023-01-26T23:21:21.205Z,11.83
2023-01-26T23:24:24.472Z,12.20
2023-01-26T23:27:28.859Z,12.60
2023-01-26T23:30:31.903Z,11.87
2023-01-26T23:33:36.119Z,11.50
2023-01-26T23:36:39.122Z,11.80
2023-01-26T23:39:42.111Z,11.90
2023-01-26T23:43:03.418Z,11.60
2023-01-26T23:46:10.957Z,12.43
2023-01-26T23:49:13.965Z,11.07
2023-01-26T23:52:17.058Z,11.40
2023-01-26T23:55:20.233Z,12.00
2023-01-26T23:58:24.771Z,12.23
